Time;durP1;ratioP1;P1;durP2;ratioP2;P2;SDS_P1;SDS_P2;PMS_P1;PMS_P2;Temp;Humidity;BMP_temperature;BMP_pressure;BME280_temperature;BME280_humidity;BME280_pressure;Samples;Min_cycle;Max_cycle;Signal;HPM_P1;HPM_P2
2022/10/20 00:01:28;;;;;;;10.73;6.40;;;15.00;60.20;;;;;;5007185;28;20057;-45
2022/10/20 00:03:56;;;;;;;10.35;5.57;;;15.00;60.20;;;;;;5042610;23;20064;-89
2022/10/20 00:06:26;;;;;;;8.88;6.07;;;15.00;60.20;;;;;;5020753;23;20073;-51
2022/10/20 00:08:56;;;;;;;9.07;5.85;;;15.00;60.10;;;;;;4998092;28;20538;-51
2022/10/20 00:11:25;;;;;;;8.75;5.20;;;15.00;60.10;;;;;;4997110;28;20061;-43
2022/10/20 00:13:53;;;;;;;8.90;5.72;;;15.00;60.00;;;;;;5002944;28;20064;-43
2022/10/20 00:16:21;;;;;;;10.35;5.95;;;15.00;60.00;;;;;;5000381;28;20049;-42
2022/10/20 00:18:49;;;;;;;8.20;5.50;;;15.00;60.00;;;;;;5005533;28;20054;-44
2022/10/20 00:21:18;;;;;;;12.32;5.85;;;15.00;59.90;;;;;;4994305;28;20061;-46
2022/10/20 00:23:45;;;;;;;8.13;5.07;;;15.00;59.80;;;;;;5003806;28;20053;-44
2022/10/20 00:26:17;;;;;;;12.90;6.00;;;15.00;59.80;;;;;;5002761;28;20064;-44
2022/10/20 00:28:44;;;;;;;9.95;5.40;;;14.90;59.70;;;;;;5003982;28;20504;-47
2022/10/20 00:31:12;;;;;;;6.95;5.07;;;15.00;59.80;;;;;;4989928;28;20505;-46
2022/10/20 00:33:40;;;;;;;9.43;4.93;;;14.90;59.70;;;;;;5003606;28;20053;-47
2022/10/20 00:36:11;;;;;;;11.70;5.78;;;14.90;59.70;;;;;;5000495;28;20076;-46
2022/10/20 00:38:38;;;;;;;9.65;5.68;;;14.90;59.70;;;;;;5004284;28;20508;-43
2022/10/20 00:41:05;;;;;;;9.18;5.13;;;14.90;59.70;;;;;;4997759;28;20085;-44
2022/10/20 00:43:46;;;;;;;12.43;6.28;;;14.90;59.70;;;;;;5005187;28;20058;-44
2022/10/20 00:46:16;;;;;;;10.20;5.97;;;14.90;59.70;;;;;;4989787;28;20049;-45
2022/10/20 00:48:47;;;;;;;9.07;5.25;;;14.90;59.60;;;;;;4995968;28;20046;-47
2022/10/20 00:51:18;;;;;;;8.07;5.15;;;14.90;59.60;;;;;;4985406;28;20058;-46
2022/10/20 00:53:46;;;;;;;10.25;5.95;;;14.90;59.60;;;;;;5004738;28;20057;-44
2022/10/20 00:56:14;;;;;;;7.88;5.85;;;14.90;59.60;;;;;;5001529;28;20410;-48
2022/10/20 00:58:42;;;;;;;13.38;6.90;;;14.80;59.70;;;;;;5002599;28;20429;-43
2022/10/20 01:01:12;;;;;;;9.93;5.70;;;14.80;59.60;;;;;;4990346;28;20065;-48
2022/10/20 01:03:44;;;;;;;8.23;5.50;;;14.80;60.10;;;;;;5003536;28;20064;-50
2022/10/20 01:06:15;;;;;;;11.25;5.60;;;14.80;59.50;;;;;;5014121;28;20528;-51
2022/10/20 01:08:43;;;;;;;8.50;5.13;;;14.80;59.50;;;;;;5024577;28;20053;-51
2022/10/20 01:11:18;;;;;;;10.15;5.97;;;14.80;59.50;;;;;;5018505;28;20068;-51
2022/10/20 01:13:57;;;;;;;8.05;5.53;;;14.80;59.50;;;;;;5022506;28;20064;-50
2022/10/20 01:16:34;;;;;;;9.90;6.00;;;14.80;59.40;;;;;;5019768;28;20056;-50
2022/10/20 01:19:13;;;;;;;12.30;5.93;;;14.80;59.40;;;;;;5020318;28;20053;-51
2022/10/20 01:22:05;;;;;;;9.98;5.75;;;14.80;59.40;;;;;;5020028;28;20500;-48
2022/10/20 01:24:55;;;;;;;12.82;5.65;;;14.80;59.30;;;;;;5025123;28;20084;-51
2022/10/20 01:27:29;;;;;;;8.95;5.32;;;14.80;59.30;;;;;;5018546;28;20493;-52
2022/10/20 01:33:13;;;;;;;8.25;5.13;;;14.80;59.40;;;;;;5021046;28;19913;-51
2022/10/20 01:35:48;;;;;;;7.75;5.28;;;14.80;59.10;;;;;;5020197;28;20065;-50
2022/10/20 01:38:23;;;;;;;8.63;5.18;;;14.70;59.10;;;;;;5006518;28;20054;-49
2022/10/20 01:40:56;;;;;;;9.65;5.65;;;14.70;59.10;;;;;;5017689;28;20076;-50
2022/10/20 01:43:28;;;;;;;8.07;5.45;;;14.70;59.10;;;;;;5018772;28;20137;-51
2022/10/20 01:45:57;;;;;;;7.60;4.80;;;14.70;59.10;;;;;;5015493;28;20049;-50
2022/10/20 01:48:28;;;;;;;8.57;5.60;;;14.70;59.20;;;;;;5017537;28;20053;-51
2022/10/20 01:50:56;;;;;;;7.95;5.00;;;14.70;59.10;;;;;;5012872;28;20079;-51
2022/10/20 01:53:23;;;;;;;12.80;5.00;;;14.60;59.10;;;;;;5017222;28;20060;-52
2022/10/20 01:55:52;;;;;;;16.55;5.80;;;14.70;59.20;;;;;;5020480;28;20057;-50
2022/10/20 01:58:46;;;;;;;8.68;4.85;;;14.70;59.10;;;;;;5023730;28;20408;-45
2022/10/20 02:01:22;;;;;;;11.40;5.03;;;14.60;59.10;;;;;;5015841;28;20054;-52
2022/10/20 02:03:54;;;;;;;8.05;5.10;;;14.70;59.10;;;;;;5023238;28;20060;-46
2022/10/20 02:06:35;;;;;;;12.40;5.72;;;14.60;58.90;;;;;;5024564;28;20057;-51
2022/10/20 02:09:06;;;;;;;11.88;5.05;;;14.60;58.90;;;;;;5023995;28;20050;-47
2022/10/20 02:11:41;;;;;;;17.77;5.97;;;14.60;58.90;;;;;;5020499;28;20496;-49
2022/10/20 02:14:13;;;;;;;14.52;5.50;;;14.60;58.90;;;;;;5015147;28;20523;-51
2022/10/20 02:16:45;;;;;;;13.27;6.00;;;14.60;58.90;;;;;;5016697;28;20440;-49
2022/10/20 02:19:14;;;;;;;7.85;5.50;;;14.60;59.40;;;;;;5015503;28;20060;-50
2022/10/20 02:21:41;;;;;;;10.55;5.80;;;14.60;58.90;;;;;;5022926;28;20504;-50
2022/10/20 02:24:10;;;;;;;9.32;5.05;;;14.50;58.90;;;;;;5018884;28;20068;-52
2022/10/20 02:26:39;;;;;;;12.10;5.35;;;14.60;58.90;;;;;;5022039;28;20053;-51
2022/10/20 02:29:15;;;;;;;8.55;5.30;;;14.60;58.90;;;;;;5009706;28;20262;-47
2022/10/20 02:31:43;;;;;;;10.73;5.70;;;14.60;58.80;;;;;;5014582;28;20060;-51
2022/10/20 02:34:11;;;;;;;9.00;5.22;;;14.60;58.90;;;;;;5022295;28;20515;-51
2022/10/20 02:36:42;;;;;;;8.52;4.85;;;14.50;58.80;;;;;;5021729;28;20049;-51
2022/10/20 02:39:10;;;;;;;7.53;4.82;;;14.50;58.70;;;;;;5023339;28;20382;-51
2022/10/20 02:41:38;;;;;;;10.88;5.45;;;14.50;58.70;;;;;;5021246;28;20069;-46
2022/10/20 02:44:05;;;;;;;13.88;5.65;;;14.60;58.70;;;;;;5025150;28;20057;-50
2022/10/20 02:46:33;;;;;;;11.68;5.10;;;14.60;58.70;;;;;;5020388;28;20056;-51
2022/10/20 02:49:01;;;;;;;9.98;5.28;;;14.50;58.70;;;;;;5024697;28;20056;-52
2022/10/20 02:51:28;;;;;;;8.75;4.90;;;14.60;58.70;;;;;;5014855;28;20084;-52
2022/10/20 02:53:57;;;;;;;9.15;4.63;;;14.60;58.60;;;;;;5024707;28;20064;-49
2022/10/20 02:56:25;;;;;;;10.90;5.32;;;14.60;58.60;;;;;;5022108;28;20053;-52
2022/10/20 02:58:52;;;;;;;7.97;4.40;;;14.50;58.50;;;;;;5021428;28;20068;-51
2022/10/20 03:01:19;;;;;;;9.60;4.85;;;14.50;58.40;;;;;;5015798;28;20053;-44
2022/10/20 03:03:48;;;;;;;8.43;4.15;;;14.50;58.40;;;;;;5020555;28;20493;-42
2022/10/20 03:06:16;;;;;;;16.42;4.80;;;14.60;58.40;;;;;;5019717;28;20072;-47
2022/10/20 03:08:43;;;;;;;8.60;4.80;;;14.50;58.40;;;;;;5021568;28;20507;-45
2022/10/20 03:11:11;;;;;;;8.85;4.45;;;14.50;58.30;;;;;;5010445;28;20065;-42
2022/10/20 03:13:38;;;;;;;16.88;4.82;;;14.50;58.30;;;;;;5018533;28;21271;-48
2022/10/20 03:16:06;;;;;;;7.15;4.80;;;14.50;58.30;;;;;;5016926;28;20136;-42
2022/10/20 03:18:33;;;;;;;8.35;4.68;;;14.50;58.40;;;;;;5024969;28;20057;-45
2022/10/20 03:21:01;;;;;;;8.75;4.70;;;14.50;58.40;;;;;;5019948;28;20132;-45
2022/10/20 03:23:29;;;;;;;7.55;4.65;;;14.50;58.20;;;;;;5020856;28;20053;-45
2022/10/20 03:26:01;;;;;;;10.60;5.25;;;14.50;58.20;;;;;;5015672;28;20500;-45
2022/10/20 03:28:28;;;;;;;15.02;5.22;;;14.50;58.20;;;;;;5015108;28;20057;-44
2022/10/20 03:30:56;;;;;;;9.93;5.18;;;14.50;58.20;;;;;;5017479;28;20543;-43
2022/10/20 03:33:23;;;;;;;7.13;4.45;;;14.50;58.10;;;;;;5023695;28;20050;-45
2022/10/20 03:35:50;;;;;;;10.05;4.82;;;14.50;58.10;;;;;;5023761;28;20053;-45
2022/10/20 03:38:19;;;;;;;13.63;5.53;;;14.50;58.20;;;;;;5022048;28;20060;-44
2022/10/20 03:40:46;;;;;;;9.38;4.28;;;14.50;58.20;;;;;;5019308;28;20054;-45
2022/10/20 03:43:14;;;;;;;11.15;4.93;;;14.40;58.10;;;;;;5021405;28;20065;-44
2022/10/20 03:45:41;;;;;;;7.85;4.93;;;14.40;58.20;;;;;;5021978;28;20405;-45
2022/10/20 03:48:09;;;;;;;8.20;4.80;;;14.50;58.20;;;;;;5025728;28;20064;-45
2022/10/20 03:50:38;;;;;;;7.10;4.30;;;14.40;58.10;;;;;;5023760;28;20049;-51
2022/10/20 03:53:06;;;;;;;6.88;4.20;;;14.40;58.10;;;;;;5022860;28;20065;-42
2022/10/20 03:55:37;;;;;;;9.77;4.57;;;14.40;58.00;;;;;;5025567;28;20060;-44
2022/10/20 03:58:04;;;;;;;9.95;4.97;;;14.40;58.00;;;;;;5024158;28;20069;-45
2022/10/20 04:00:31;;;;;;;8.18;4.47;;;14.50;57.90;;;;;;5022214;28;20045;-45
2022/10/20 04:02:58;;;;;;;8.38;5.10;;;14.40;57.90;;;;;;5022553;28;20053;-43
2022/10/20 04:05:26;;;;;;;6.85;4.22;;;14.40;58.00;;;;;;5023194;28;20499;-42
2022/10/20 04:07:53;;;;;;;9.93;4.70;;;14.40;57.90;;;;;;5024833;28;20068;-43
2022/10/20 04:10:20;;;;;;;7.10;4.32;;;14.50;58.00;;;;;;5004044;28;20420;-44
2022/10/20 04:12:49;;;;;;;6.93;4.10;;;14.50;57.90;;;;;;5022084;28;20497;-43
2022/10/20 04:15:17;;;;;;;7.95;4.60;;;14.40;57.80;;;;;;5008134;28;20053;-45
2022/10/20 04:17:44;;;;;;;7.43;4.20;;;14.40;57.80;;;;;;5012730;28;20084;-44
2022/10/20 04:20:12;;;;;;;13.20;5.93;;;14.40;57.80;;;;;;5021441;28;20057;-44
2022/10/20 04:22:39;;;;;;;10.52;4.32;;;14.40;57.80;;;;;;5024240;28;20595;-43
2022/10/20 04:25:07;;;;;;;8.98;4.22;;;14.40;57.80;;;;;;5022421;28;20060;-47
2022/10/20 04:27:34;;;;;;;9.82;4.80;;;14.40;57.80;;;;;;5011398;28;20501;-40
2022/10/20 04:30:03;;;;;;;8.50;4.22;;;14.40;57.80;;;;;;5021073;28;20436;-47
2022/10/20 04:32:30;;;;;;;20.70;9.75;;;14.40;57.70;;;;;;5018986;28;20060;-44
2022/10/20 04:34:58;;;;;;;12.63;7.10;;;14.40;57.80;;;;;;5022255;28;20504;-44
2022/10/20 04:37:25;;;;;;;9.98;5.60;;;14.40;57.80;;;;;;5020100;28;20058;-43
2022/10/20 04:39:52;;;;;;;10.73;5.20;;;14.40;57.80;;;;;;5023523;28;20061;-43
2022/10/20 04:42:20;;;;;;;7.95;4.95;;;14.40;57.80;;;;;;5019574;28;20515;-41
2022/10/20 04:44:47;;;;;;;8.85;4.55;;;14.40;57.80;;;;;;5022369;28;20058;-46
2022/10/20 04:47:16;;;;;;;10.60;5.38;;;14.40;57.70;;;;;;5018290;28;20409;-43
2022/10/20 04:49:43;;;;;;;8.60;4.90;;;14.40;57.60;;;;;;5022670;28;20420;-42
2022/10/20 04:52:11;;;;;;;6.65;4.40;;;14.40;57.60;;;;;;5019001;28;20057;-46
2022/10/20 04:54:38;;;;;;;10.02;4.57;;;14.40;57.50;;;;;;5013623;28;20065;-46
2022/10/20 04:57:05;;;;;;;10.57;5.15;;;14.40;57.70;;;;;;5022121;28;20053;-47
2022/10/20 04:59:32;;;;;;;15.75;7.18;;;14.40;57.70;;;;;;5021592;28;20064;-43
2022/10/20 05:02:00;;;;;;;9.15;5.88;;;14.40;57.60;;;;;;5017517;28;20401;-41
2022/10/20 05:04:28;;;;;;;10.30;5.25;;;14.40;57.50;;;;;;5024067;28;20057;-45
2022/10/20 05:06:55;;;;;;;7.85;4.35;;;14.40;57.50;;;;;;5022772;28;20068;-40
2022/10/20 05:09:23;;;;;;;6.90;4.65;;;14.40;57.50;;;;;;5024121;28;20485;-43
2022/10/20 05:11:50;;;;;;;7.32;4.88;;;14.40;57.50;;;;;;5011929;28;20046;-41
2022/10/20 05:14:17;;;;;;;8.35;4.70;;;14.40;57.50;;;;;;5022084;28;20534;-42
2022/10/20 05:16:44;;;;;;;8.68;5.10;;;14.40;57.40;;;;;;5012490;28;20394;-43
2022/10/20 05:19:11;;;;;;;6.38;4.55;;;14.40;57.40;;;;;;5021166;28;20060;-46
2022/10/20 05:21:40;;;;;;;10.73;6.13;;;14.40;57.40;;;;;;5020590;28;20050;-46
2022/10/20 05:24:07;;;;;;;12.23;7.30;;;14.40;57.40;;;;;;5017758;28;20053;-43
2022/10/20 05:26:36;;;;;;;9.38;5.55;;;14.40;58.00;;;;;;5014378;28;20049;-48
2022/10/20 05:29:04;;;;;;;12.30;5.45;;;14.40;57.50;;;;;;4992963;28;20072;-42
2022/10/20 05:31:32;;;;;;;7.70;5.28;;;14.40;57.50;;;;;;5015069;28;20065;-47
2022/10/20 05:33:59;;;;;;;9.30;5.68;;;14.40;57.50;;;;;;5018107;28;20053;-46
2022/10/20 05:36:27;;;;;;;13.85;5.60;;;14.40;57.40;;;;;;5018682;28;20088;-45
2022/10/20 05:38:56;;;;;;;8.13;5.25;;;14.30;57.30;;;;;;5021982;28;20054;-42
2022/10/20 05:41:25;;;;;;;12.40;5.47;;;14.40;57.40;;;;;;5022697;28;20064;-41
2022/10/20 05:43:56;;;;;;;8.77;5.47;;;14.30;57.40;;;;;;5021240;28;20049;-43
2022/10/20 05:46:24;;;;;;;11.23;5.53;;;14.30;57.50;;;;;;5023103;28;20060;-43
2022/10/20 05:48:53;;;;;;;10.65;4.95;;;14.30;57.50;;;;;;5022615;28;20068;-46
2022/10/20 05:51:23;;;;;;;8.02;5.32;;;14.30;57.50;;;;;;5022719;28;20507;-44
2022/10/20 05:53:51;;;;;;;7.45;4.88;;;14.40;57.50;;;;;;5021514;28;20401;-42
2022/10/20 05:56:21;;;;;;;7.60;5.30;;;14.30;57.40;;;;;;5021413;28;20058;-47
2022/10/20 05:58:49;;;;;;;7.90;5.22;;;14.40;57.50;;;;;;5021669;28;20049;-45
2022/10/20 06:01:22;;;;;;;9.93;5.65;;;14.30;57.40;;;;;;5015347;28;20060;-41
2022/10/20 06:03:50;;;;;;;7.85;5.93;;;14.30;57.50;;;;;;5017933;28;20051;-44
2022/10/20 06:06:18;;;;;;;8.77;5.45;;;14.30;57.50;;;;;;5023245;28;20066;-45
2022/10/20 06:08:45;;;;;;;9.60;5.88;;;14.30;57.50;;;;;;5023344;28;20065;-41
2022/10/20 06:11:15;;;;;;;10.68;5.57;;;14.30;57.50;;;;;;5020646;28;20408;-43
2022/10/20 06:13:43;;;;;;;11.18;5.38;;;14.30;57.60;;;;;;5021024;28;20518;-47
2022/10/20 06:16:12;;;;;;;9.65;5.40;;;14.30;57.60;;;;;;5022093;28;20104;-45
2022/10/20 06:18:41;;;;;;;9.40;5.55;;;14.30;57.60;;;;;;5023119;28;20061;-42
2022/10/20 06:21:11;;;;;;;7.57;5.43;;;14.40;57.70;;;;;;5019544;28;20053;-45
2022/10/20 06:23:39;;;;;;;10.60;5.95;;;14.30;57.70;;;;;;5011887;28;20060;-42
2022/10/20 06:26:08;;;;;;;9.25;6.40;;;14.30;57.70;;;;;;5020562;28;20057;-43
2022/10/20 06:28:37;;;;;;;12.70;5.38;;;14.30;57.70;;;;;;5021369;28;20060;-44
2022/10/20 06:31:12;;;;;;;10.25;5.95;;;14.30;57.70;;;;;;5018726;28;20049;-44
2022/10/20 06:33:40;;;;;;;8.77;5.90;;;14.30;57.60;;;;;;5018570;28;20058;-44
2022/10/20 06:36:08;;;;;;;11.80;6.78;;;14.30;57.70;;;;;;5014446;28;20057;-45
2022/10/20 06:38:35;;;;;;;11.20;6.32;;;14.30;57.70;;;;;;5022254;28;20068;-47
2022/10/20 06:41:03;;;;;;;7.28;5.50;;;14.30;57.70;;;;;;5020628;28;20066;-42
2022/10/20 06:43:30;;;;;;;9.57;5.90;;;14.30;57.80;;;;;;5019646;28;20058;-47
2022/10/20 06:45:59;;;;;;;10.05;6.57;;;14.30;57.80;;;;;;5021576;28;20412;-44
2022/10/20 06:48:28;;;;;;;8.13;5.72;;;14.30;57.80;;;;;;5022966;28;20129;-43
2022/10/20 06:50:59;;;;;;;13.23;6.90;;;14.30;57.80;;;;;;5023727;28;20053;-44
2022/10/20 06:53:28;;;;;;;11.70;6.03;;;14.40;57.90;;;;;;5025991;28;20053;-45
2022/10/20 06:55:57;;;;;;;7.60;5.63;;;14.40;57.90;;;;;;5026446;28;20053;-46
2022/10/20 06:58:24;;;;;;;14.25;6.80;;;14.40;57.80;;;;;;5026567;28;20534;-45
2022/10/20 07:00:59;;;;;;;9.43;5.97;;;14.40;57.90;;;;;;5024362;28;20056;-45
2022/10/20 07:03:28;;;;;;;12.52;7.05;;;14.40;57.90;;;;;;5016887;28;20064;-43
2022/10/20 07:05:55;;;;;;;11.70;6.22;;;14.40;58.00;;;;;;5024609;28;20505;-44
2022/10/20 07:08:23;;;;;;;14.75;6.72;;;14.40;58.00;;;;;;5020778;28;20111;-44
2022/10/20 07:10:59;;;;;;;10.20;6.38;;;14.40;58.10;;;;;;4999098;28;20081;-44
2022/10/20 07:13:27;;;;;;;8.02;5.95;;;14.40;58.00;;;;;;5022364;28;20064;-48
2022/10/20 07:15:55;;;;;;;10.48;6.55;;;14.40;58.00;;;;;;5019358;28;20480;-46
2022/10/20 07:18:22;;;;;;;12.52;7.45;;;14.40;58.00;;;;;;5020589;28;20061;-41
2022/10/20 07:20:51;;;;;;;13.32;6.53;;;14.40;57.90;;;;;;5023356;28;20053;-42
2022/10/20 07:23:18;;;;;;;9.88;5.85;;;14.40;57.80;;;;;;5024779;28;20064;-45
2022/10/20 07:25:46;;;;;;;11.88;6.20;;;14.40;57.90;;;;;;5016029;28;20065;-48
2022/10/20 07:28:13;;;;;;;8.82;6.10;;;14.40;57.90;;;;;;5022422;28;20472;-44
2022/10/20 07:30:41;;;;;;;10.18;5.90;;;14.40;57.80;;;;;;5022747;28;20416;-42
2022/10/20 07:33:09;;;;;;;9.55;5.82;;;14.40;57.80;;;;;;5021827;28;20049;-46
2022/10/20 07:35:36;;;;;;;11.73;6.75;;;14.40;57.90;;;;;;5026268;28;20053;-43
2022/10/20 07:38:05;;;;;;;10.77;5.65;;;14.40;57.80;;;;;;5023257;28;20065;-46
2022/10/20 07:40:32;;;;;;;11.73;6.30;;;14.50;57.90;;;;;;5022496;28;20502;-41
2022/10/20 07:42:59;;;;;;;11.07;5.97;;;14.50;57.90;;;;;;5023945;28;20066;-46
2022/10/20 07:45:26;;;;;;;10.80;6.10;;;14.50;57.90;;;;;;5023468;28;20776;-44
2022/10/20 07:47:53;;;;;;;10.38;6.32;;;14.50;57.90;;;;;;5024078;28;20056;-42
2022/10/20 07:50:21;;;;;;;13.65;6.20;;;14.50;57.90;;;;;;5022236;28;20061;-42
2022/10/20 07:52:51;;;;;;;11.00;7.30;;;14.60;57.90;;;;;;5021883;28;20064;-44
2022/10/20 07:55:20;;;;;;;12.20;6.45;;;14.50;57.90;;;;;;5024269;28;20053;-45
2022/10/20 07:57:47;;;;;;;9.32;6.68;;;14.60;57.90;;;;;;5025450;28;20053;-45
2022/10/20 08:00:15;;;;;;;10.88;6.20;;;14.60;57.90;;;;;;5021880;28;20064;-45
2022/10/20 08:02:44;;;;;;;10.00;6.15;;;14.60;57.90;;;;;;5019978;28;21515;-42
2022/10/20 08:05:11;;;;;;;10.38;6.50;;;14.60;57.90;;;;;;5021871;28;20059;-46
2022/10/20 08:07:39;;;;;;;10.02;6.65;;;14.60;57.90;;;;;;5023551;28;20401;-41
2022/10/20 08:10:07;;;;;;;9.57;6.90;;;14.60;57.90;;;;;;5023757;28;20054;-44
2022/10/20 08:12:36;;;;;;;13.73;6.95;;;14.60;57.90;;;;;;5023688;28;21174;-45
2022/10/20 08:15:03;;;;;;;10.73;6.65;;;14.70;58.00;;;;;;5024738;28;20057;-45
2022/10/20 08:17:30;;;;;;;9.65;6.82;;;14.70;58.10;;;;;;5021754;28;20058;-47
2022/10/20 08:19:58;;;;;;;10.77;6.57;;;14.70;58.10;;;;;;5023286;28;20052;-45
2022/10/20 08:22:25;;;;;;;14.85;7.55;;;14.70;58.20;;;;;;5024421;28;20405;-41
2022/10/20 08:24:52;;;;;;;14.35;7.15;;;14.80;58.20;;;;;;5024183;28;20076;-43
2022/10/20 08:27:20;;;;;;;8.88;6.05;;;14.70;58.10;;;;;;5024370;28;20045;-43
2022/10/20 08:29:48;;;;;;;11.32;6.88;;;14.80;58.20;;;;;;5023735;28;20057;-47
2022/10/20 08:32:16;;;;;;;12.98;6.18;;;14.80;58.30;;;;;;5020785;28;20056;-46
2022/10/20 08:34:43;;;;;;;12.70;7.38;;;14.90;58.40;;;;;;5023479;28;20049;-47
2022/10/20 08:37:10;;;;;;;10.18;7.05;;;14.90;58.40;;;;;;5023991;28;20057;-46
2022/10/20 08:39:37;;;;;;;10.18;6.82;;;14.90;58.30;;;;;;5023970;28;20412;-44
2022/10/20 08:42:04;;;;;;;14.27;7.88;;;15.00;58.30;;;;;;5023822;28;20068;-44
2022/10/20 08:44:35;;;;;;;10.38;6.95;;;15.00;58.40;;;;;;5022620;28;20049;-44
2022/10/20 08:47:12;;;;;;;11.15;7.30;;;15.00;58.30;;;;;;5022793;28;20278;-43
2022/10/20 08:49:40;;;;;;;12.68;6.60;;;15.10;58.20;;;;;;5024150;28;20064;-41
2022/10/20 08:52:12;;;;;;;11.93;6.55;;;15.10;58.20;;;;;;5022919;28;20053;-44
2022/10/20 08:54:39;;;;;;;12.57;6.82;;;15.10;58.20;;;;;;5023119;28;20053;-46
2022/10/20 08:57:20;;;;;;;10.40;6.38;;;15.10;58.10;;;;;;5016532;28;20511;-44
2022/10/20 08:59:50;;;;;;;11.93;6.95;;;15.20;58.10;;;;;;5022324;28;20045;-46
2022/10/20 09:02:19;;;;;;;8.75;6.13;;;15.20;58.10;;;;;;5017480;28;20049;-47
2022/10/20 09:04:49;;;;;;;9.93;6.80;;;15.20;58.10;;;;;;5024179;28;20064;-42
2022/10/20 09:07:24;;;;;;;9.73;6.43;;;15.20;58.10;;;;;;5024003;28;20057;-43
2022/10/20 09:09:52;;;;;;;9.18;6.35;;;15.20;58.10;;;;;;5023275;28;20053;-44
2022/10/20 09:12:21;;;;;;;15.13;7.25;;;15.30;58.20;;;;;;5018481;28;20477;-41
2022/10/20 09:14:48;;;;;;;10.32;6.78;;;15.30;58.20;;;;;;5021654;28;20060;-44
2022/10/20 09:17:18;;;;;;;11.38;6.13;;;15.30;58.20;;;;;;5021403;28;20053;-46
2022/10/20 09:19:49;;;;;;;10.85;6.13;;;15.30;58.10;;;;;;5022194;28;20053;-47
2022/10/20 09:22:21;;;;;;;10.55;6.20;;;15.30;58.20;;;;;;5022533;28;20053;-46
2022/10/20 09:24:49;;;;;;;10.10;6.63;;;15.30;58.20;;;;;;5023832;28;20056;-43
2022/10/20 09:27:24;;;;;;;10.35;6.78;;;15.30;58.30;;;;;;5023551;28;20088;-42
2022/10/20 09:29:51;;;;;;;9.20;6.35;;;15.40;58.30;;;;;;5022280;28;20432;-41
2022/10/20 09:32:31;;;;;;;10.20;7.22;;;15.40;58.30;;;;;;5017858;28;20060;-43
2022/10/20 09:35:17;;;;;;;12.80;6.90;;;15.40;58.30;;;;;;5022945;28;20060;-41
2022/10/20 09:37:50;;;;;;;12.30;7.25;;;15.40;58.30;;;;;;5021361;28;20060;-44
2022/10/20 09:40:18;;;;;;;11.85;6.97;;;15.40;58.30;;;;;;5018493;28;20061;-43
2022/10/20 09:42:50;;;;;;;15.45;7.85;;;15.50;58.30;;;;;;5021523;28;20061;-43
2022/10/20 09:45:21;;;;;;;10.60;7.88;;;15.50;58.50;;;;;;5018971;28;20050;-46
2022/10/20 09:47:54;;;;;;;16.80;8.82;;;15.50;58.50;;;;;;5023293;28;20079;-40
2022/10/20 09:50:27;;;;;;;10.02;7.00;;;15.50;58.60;;;;;;5021811;28;20073;-41
2022/10/20 09:52:54;;;;;;;13.30;7.68;;;15.50;58.60;;;;;;5018448;28;20058;-42
2022/10/20 09:55:27;;;;;;;12.48;7.50;;;15.50;58.60;;;;;;5022525;28;20519;-46
2022/10/20 09:57:56;;;;;;;10.95;7.63;;;15.50;58.60;;;;;;5012393;28;20057;-42
2022/10/20 10:00:26;;;;;;;11.43;7.78;;;15.60;58.70;;;;;;5022302;28;20058;-42
2022/10/20 10:03:18;;;;;;;13.68;7.70;;;15.60;58.60;;;;;;5022541;28;20054;-44
2022/10/20 10:05:46;;;;;;;15.52;7.85;;;15.60;58.70;;;;;;5023285;28;20053;-42
2022/10/20 10:08:14;;;;;;;13.38;8.02;;;15.60;58.60;;;;;;5023170;28;20517;-42
2022/10/20 10:10:44;;;;;;;12.80;7.93;;;15.60;58.70;;;;;;5021843;28;20053;-46
2022/10/20 10:13:24;;;;;;;16.42;8.50;;;15.70;58.90;;;;;;5021925;28;20057;-44
2022/10/20 10:16:04;;;;;;;13.25;8.13;;;15.70;59.00;;;;;;5019683;28;20053;-43
2022/10/20 10:18:34;;;;;;;11.73;7.97;;;15.70;59.00;;;;;;5021235;28;20532;-43
2022/10/20 10:21:04;;;;;;;12.95;8.50;;;15.70;59.00;;;;;;5022147;28;20072;-45
2022/10/20 10:23:35;;;;;;;14.18;8.25;;;15.70;59.00;;;;;;5023384;28;20062;-46
2022/10/20 10:26:03;;;;;;;12.07;7.78;;;15.70;59.00;;;;;;5022776;28;20072;-45
2022/10/20 10:28:36;;;;;;;12.30;8.05;;;15.80;59.10;;;;;;5021632;28;20056;-47
2022/10/20 10:31:07;;;;;;;13.73;7.53;;;15.80;59.00;;;;;;5021356;28;20064;-47
2022/10/20 10:33:36;;;;;;;11.10;7.28;;;15.80;59.10;;;;;;5022571;28;20493;-42
2022/10/20 10:36:10;;;;;;;10.73;7.53;;;15.80;59.00;;;;;;5021012;28;20068;-45
2022/10/20 10:38:37;;;;;;;16.17;7.82;;;15.90;59.00;;;;;;5022783;28;20544;-47
2022/10/20 10:41:17;;;;;;;12.70;8.00;;;15.90;59.00;;;;;;5010957;28;20064;-43
2022/10/20 10:43:56;;;;;;;12.10;7.32;;;15.90;59.00;;;;;;5021376;28;20049;-47
2022/10/20 10:46:28;;;;;;;16.45;7.80;;;16.00;59.00;;;;;;5021827;28;20401;-44
2022/10/20 10:49:29;;;;;;;14.00;7.57;;;16.00;59.00;;;;;;5020273;28;20053;-46
2022/10/20 10:52:04;;;;;;;10.20;7.60;;;16.00;59.10;;;;;;5017570;28;20483;-43
2022/10/20 10:54:49;;;;;;;15.85;8.15;;;16.00;59.00;;;;;;5021299;28;20485;-40
2022/10/20 10:57:27;;;;;;;14.07;8.15;;;16.00;59.10;;;;;;5023174;28;20057;-46
2022/10/20 10:59:58;;;;;;;12.80;8.00;;;16.00;59.00;;;;;;5021005;28;20058;-44
2022/10/20 11:02:55;;;;;;;15.18;8.85;;;16.00;59.10;;;;;;5021009;28;20061;-45
2022/10/20 11:05:38;;;;;;;14.23;8.65;;;16.00;59.10;;;;;;5021174;28;20050;-43
2022/10/20 11:08:17;;;;;;;12.20;8.32;;;16.00;59.10;;;;;;5022387;28;20069;-45
2022/10/20 11:10:51;;;;;;;11.15;7.85;;;16.10;59.20;;;;;;5020798;28;20057;-44
2022/10/20 11:13:27;;;;;;;12.38;8.68;;;16.00;59.10;;;;;;5020531;28;20053;-47
2022/10/20 11:16:12;;;;;;;13.57;8.13;;;16.00;59.10;;;;;;5020074;28;20413;-45
2022/10/20 11:19:16;;;;;;;15.93;8.18;;;16.00;59.20;;;;;;5022132;28;20053;-42
2022/10/20 11:22:00;;;;;;;10.73;7.55;;;16.10;59.40;;;;;;5004860;28;20049;-46
2022/10/20 11:24:43;;;;;;;9.67;7.70;;;16.10;59.40;;;;;;5021131;28;20076;-46
2022/10/20 11:27:14;;;;;;;11.77;8.30;;;16.10;59.50;;;;;;5021289;28;20057;-46
2022/10/20 11:29:44;;;;;;;12.43;8.05;;;16.10;59.50;;;;;;5022362;28;20497;-43
2022/10/20 11:32:24;;;;;;;19.17;8.63;;;16.10;59.50;;;;;;5019618;28;20053;-47
2022/10/20 11:34:59;;;;;;;14.30;8.85;;;16.10;59.50;;;;;;5022591;28;20501;-42
2022/10/20 11:37:30;;;;;;;9.57;7.60;;;16.20;59.60;;;;;;5023379;28;20504;-42
2022/10/20 11:40:05;;;;;;;11.23;8.30;;;16.20;59.60;;;;;;5025539;28;20496;-47
2022/10/20 11:42:39;;;;;;;11.82;8.02;;;16.20;59.60;;;;;;5025355;28;20493;-48
2022/10/20 11:45:26;;;;;;;13.15;7.55;;;16.20;59.60;;;;;;5025350;28;20500;-50
2022/10/20 11:47:58;;;;;;;14.52;8.30;;;16.20;59.60;;;;;;5024774;28;20409;-48
2022/10/20 11:50:26;;;;;;;9.25;7.22;;;16.30;59.60;;;;;;5025126;28;20056;-45
2022/10/20 11:53:05;;;;;;;11.98;7.40;;;16.30;59.70;;;;;;5024241;28;20057;-43
2022/10/20 11:55:43;;;;;;;13.30;8.20;;;16.30;59.70;;;;;;5026131;28;20068;-43
2022/10/20 11:58:23;;;;;;;15.50;7.75;;;16.30;59.80;;;;;;5025778;28;20120;-45
2022/10/20 12:00:59;;;;;;;12.60;8.45;;;16.30;59.80;;;;;;5023626;28;20057;-45
2022/10/20 12:03:58;;;;;;;14.10;8.55;;;16.40;59.90;;;;;;5024925;28;20065;-47
2022/10/20 12:06:51;;;;;;;14.02;8.38;;;16.40;60.00;;;;;;5025180;28;20057;-49
2022/10/20 12:09:51;;;;;;;11.02;7.90;;;16.30;59.80;;;;;;5023837;28;20065;-47
2022/10/20 12:12:25;;;;;;;21.27;9.98;;;16.40;60.00;;;;;;5023230;28;20053;-47
2022/10/20 12:14:57;;;;;;;13.43;8.37;;;16.40;60.00;;;;;;5024535;28;20053;-46
2022/10/20 12:17:34;;;;;;;13.50;8.20;;;16.40;60.00;;;;;;5024639;28;20068;-45
2022/10/20 12:20:38;;;;;;;13.07;8.63;;;16.40;60.10;;;;;;5024599;28;20061;-47
2022/10/20 12:23:05;;;;;;;18.90;9.10;;;16.40;60.20;;;;;;5002594;28;20062;-42
2022/10/20 12:25:41;;;;;;;12.95;8.65;;;16.40;60.10;;;;;;5024255;28;20061;-47
2022/10/20 12:28:39;;;;;;;14.00;8.52;;;16.40;60.40;;;;;;5024946;28;20060;-46
2022/10/20 12:31:07;;;;;;;12.18;7.95;;;16.40;60.40;;;;;;5023558;28;20057;-48
2022/10/20 12:33:37;;;;;;;12.55;8.55;;;16.40;60.30;;;;;;5024336;28;20794;-42
2022/10/20 12:36:26;;;;;;;12.32;8.75;;;16.40;60.50;;;;;;5023356;28;20073;-42
2022/10/20 12:39:07;;;;;;;14.40;9.00;;;16.40;60.60;;;;;;5023595;28;20068;-43
2022/10/20 12:41:41;;;;;;;15.52;9.15;;;16.40;60.50;;;;;;5024344;28;20053;-45
2022/10/20 12:44:15;;;;;;;13.52;9.40;;;16.40;60.70;;;;;;5024107;28;20057;-47
2022/10/20 12:46:51;;;;;;;20.48;10.27;;;16.40;60.80;;;;;;5023471;28;20061;-47
2022/10/20 12:49:25;;;;;;;11.15;8.32;;;16.40;60.90;;;;;;5022127;28;20053;-46
2022/10/20 12:51:55;;;;;;;14.30;9.02;;;16.40;61.00;;;;;;5023180;28;20596;-44
2022/10/20 12:54:26;;;;;;;14.95;9.93;;;16.40;61.00;;;;;;5023086;28;20049;-49
2022/10/20 12:56:59;;;;;;;14.55;9.30;;;16.40;61.10;;;;;;5023407;28;20053;-46
2022/10/20 12:59:45;;;;;;;19.20;10.20;;;16.40;61.30;;;;;;5021982;28;20063;-45
2022/10/20 13:02:50;;;;;;;13.18;9.88;;;16.40;61.50;;;;;;5018620;28;20054;-44
2022/10/20 13:05:35;;;;;;;;;;;16.40;61.60;;;;;;5021566;28;20049;-46